createdAt,value
2022-10-29T00:00:50.487Z,6.82
2022-10-29T00:03:17.166Z,7.70
2022-10-29T00:05:43.617Z,7.43
2022-10-29T00:08:10.075Z,9.05
2022-10-29T00:10:36.476Z,7.82
2022-10-29T00:13:03.487Z,7.93
2022-10-29T00:15:30.136Z,6.57
2022-10-29T00:17:56.919Z,7.03
2022-10-29T00:20:23.972Z,8.80
2022-10-29T00:22:54.296Z,5.82
2022-10-29T00:25:21.020Z,4.72
2022-10-29T00:27:47.420Z,6.93
2022-10-29T00:30:14.033Z,7.25
2022-10-29T00:32:40.486Z,7.50
2022-10-29T00:35:07.199Z,4.95
2022-10-29T00:37:35.055Z,8.07
2022-10-29T00:40:01.518Z,4.65
2022-10-29T00:42:28.018Z,8.98
2022-10-29T00:44:54.494Z,6.95
2022-10-29T00:47:32.785Z,5.72
2022-10-29T00:50:05.770Z,5.40
2022-10-29T00:52:33.547Z,7.22
2022-10-29T00:55:02.660Z,8.50
2022-10-29T00:57:37.386Z,7.63
2022-10-29T01:00:04.390Z,7.63
2022-10-29T01:02:32.036Z,7.28
2022-10-29T01:04:59.353Z,7.97
2022-10-29T01:07:26.293Z,5.80
2022-10-29T01:09:52.810Z,10.02
2022-10-29T01:12:33.499Z,7.22
2022-10-29T01:15:37.134Z,8.23
2022-10-29T01:18:06.518Z,8.77
2022-10-29T01:20:54.187Z,7.82
2022-10-29T01:24:11.558Z,7.45
2022-10-29T01:27:05.849Z,6.47
2022-10-29T01:30:00.447Z,8.43
2022-10-29T01:32:36.488Z,6.45
2022-10-29T01:35:17.211Z,4.10
2022-10-29T01:37:57.386Z,8.43
2022-10-29T01:40:27.568Z,7.13
2022-10-29T01:42:58.877Z,10.23
2022-10-29T01:45:56.549Z,5.65
2022-10-29T01:48:30.543Z,7.45
2022-10-29T01:51:03.920Z,7.30
2022-10-29T01:53:31.621Z,7.05
2022-10-29T01:55:58.057Z,8.23
2022-10-29T01:58:24.981Z,8.88
2022-10-29T02:01:16.009Z,7.68
2022-10-29T02:04:02.076Z,8.80
2022-10-29T02:06:43.248Z,10.20
2022-10-29T02:09:39.030Z,8.05
2022-10-29T02:12:27.730Z,7.30
2022-10-29T02:14:59.516Z,6.00
2022-10-29T02:17:26.355Z,5.35
2022-10-29T02:19:52.808Z,8.95
2022-10-29T02:22:19.324Z,7.55
2022-10-29T02:24:45.806Z,5.75
2022-10-29T02:27:12.400Z,8.05
2022-10-29T02:29:38.941Z,6.38
2022-10-29T02:32:05.751Z,5.53
2022-10-29T02:34:32.231Z,7.10
2022-10-29T02:36:58.675Z,10.40
2022-10-29T02:39:25.246Z,7.75
2022-10-29T02:41:51.706Z,9.98
2022-10-29T02:44:18.155Z,8.07
2022-10-29T02:46:44.695Z,8.18
2022-10-29T02:49:11.194Z,8.30
2022-10-29T02:51:37.666Z,6.80
2022-10-29T02:54:04.325Z,8.45
2022-10-29T02:56:30.793Z,8.48
2022-10-29T02:58:57.351Z,5.45
2022-10-29T03:01:24.071Z,6.35
2022-10-29T03:03:50.628Z,5.85
2022-10-29T03:06:19.255Z,6.65
2022-10-29T03:08:46.143Z,5.78
2022-10-29T03:11:13.282Z,7.63
2022-10-29T03:13:40.061Z,10.02
2022-10-29T03:16:06.611Z,6.45
2022-10-29T03:18:33.088Z,5.88
2022-10-29T03:20:59.542Z,5.80
2022-10-29T03:23:26.149Z,7.25
2022-10-29T03:25:55.890Z,7.45
2022-10-29T03:28:23.997Z,6.13
2022-10-29T03:30:50.534Z,7.68
2022-10-29T03:33:17.022Z,5.18
2022-10-29T03:35:43.565Z,7.35
2022-10-29T03:38:10.105Z,9.55
2022-10-29T03:40:36.574Z,6.88
2022-10-29T03:43:03.167Z,6.45
2022-10-29T03:45:29.638Z,5.43
2022-10-29T03:47:57.612Z,7.80
2022-10-29T03:50:24.460Z,7.47
2022-10-29T03:52:51.014Z,6.10
2022-10-29T03:55:17.557Z,6.65
2022-10-29T03:57:44.056Z,5.72
2022-10-29T04:00:10.865Z,7.07
2022-10-29T04:02:37.403Z,6.65
2022-10-29T04:05:04.117Z,4.82
2022-10-29T04:07:30.626Z,6.50
2022-10-29T04:09:57.129Z,5.15
2022-10-29T04:12:23.680Z,8.38
2022-10-29T04:17:16.553Z,7.30
2022-10-29T04:19:42.998Z,7.15
2022-10-29T04:28:41.485Z,7.60
2022-10-29T04:30:29.504Z,6.72
2022-10-29T04:33:00.058Z,6.80
2022-10-29T04:35:27.729Z,8.18
2022-10-29T04:37:57.207Z,5.82
2022-10-29T04:40:24.533Z,7.47
2022-10-29T04:42:51.280Z,6.80
2022-10-29T04:45:18.015Z,7.28
2022-10-29T04:47:44.774Z,8.02
2022-10-29T04:50:11.253Z,6.53
2022-10-29T04:52:37.760Z,6.85
2022-10-29T04:55:04.629Z,9.95
2022-10-29T04:57:31.127Z,7.43
2022-10-29T04:59:57.551Z,6.28
2022-10-29T05:02:24.037Z,6.00
2022-10-29T05:04:50.474Z,6.45
2022-10-29T05:07:16.977Z,8.25
2022-10-29T05:09:43.448Z,8.75
2022-10-29T05:12:09.921Z,8.15
2022-10-29T05:14:36.389Z,11.15
2022-10-29T05:17:02.886Z,8.07
2022-10-29T05:19:29.336Z,6.90
2022-10-29T05:21:55.826Z,7.38
2022-10-29T05:24:22.315Z,8.93
2022-10-29T05:26:48.792Z,9.02
2022-10-29T05:29:15.321Z,8.60
2022-10-29T05:31:41.775Z,9.07
2022-10-29T05:34:08.249Z,8.10
2022-10-29T05:36:34.699Z,8.00
2022-10-29T05:39:01.156Z,8.80
2022-10-29T05:41:27.736Z,8.55
2022-10-29T05:43:54.164Z,11.00
2022-10-29T05:46:20.599Z,10.48
2022-10-29T05:48:47.058Z,12.40
2022-10-29T05:51:13.500Z,10.45
2022-10-29T05:53:39.950Z,10.95
2022-10-29T05:56:07.289Z,9.82
2022-10-29T05:58:33.739Z,13.02
2022-10-29T06:01:00.176Z,8.68
2022-10-29T06:03:26.570Z,7.38
2022-10-29T06:05:52.985Z,11.93
2022-10-29T06:08:19.400Z,10.55
2022-10-29T06:10:45.812Z,10.90
2022-10-29T06:13:13.412Z,9.45
2022-10-29T06:15:39.878Z,8.95
2022-10-29T06:18:07.736Z,9.07
2022-10-29T06:20:34.203Z,9.20
2022-10-29T06:23:00.626Z,9.23
2022-10-29T06:25:27.976Z,10.23
2022-10-29T06:28:01.857Z,8.65
2022-10-29T06:30:32.232Z,9.65
2022-10-29T06:32:59.429Z,9.27
2022-10-29T06:35:26.469Z,11.82
2022-10-29T06:37:53.147Z,9.07
2022-10-29T06:40:19.863Z,11.20
2022-10-29T06:42:46.303Z,9.93
2022-10-29T06:45:13.027Z,8.00
2022-10-29T06:47:44.231Z,7.88
2022-10-29T06:50:12.272Z,9.38
2022-10-29T06:52:38.996Z,9.02
2022-10-29T06:55:06.517Z,7.97
2022-10-29T06:57:32.939Z,9.25
2022-10-29T07:00:03.715Z,9.07
2022-10-29T07:02:33.918Z,12.10
2022-10-29T07:05:00.307Z,9.23
2022-10-29T07:07:28.360Z,9.93
2022-10-29T07:09:54.823Z,9.98
2022-10-29T07:12:21.238Z,8.77
2022-10-29T07:14:47.623Z,10.05
2022-10-29T07:17:14.038Z,10.20
2022-10-29T07:19:40.465Z,15.32
2022-10-29T07:22:06.881Z,10.77
2022-10-29T07:24:33.293Z,13.55
2022-10-29T07:26:59.921Z,13.43
2022-10-29T07:29:26.364Z,14.18
2022-10-29T07:31:52.792Z,15.65
2022-10-29T07:34:19.260Z,14.77
2022-10-29T07:36:45.677Z,10.70
2022-10-29T07:39:12.081Z,9.52
2022-10-29T07:41:38.492Z,15.60
2022-10-29T07:44:05.005Z,11.85
2022-10-29T07:46:31.416Z,8.32
2022-10-29T07:48:57.807Z,13.40
2022-10-29T07:51:24.222Z,11.43
2022-10-29T07:53:50.672Z,10.82
2022-10-29T07:56:17.073Z,13.45
2022-10-29T07:58:43.578Z,12.05
2022-10-29T08:01:10.058Z,13.15
2022-10-29T08:03:36.665Z,10.02
2022-10-29T08:06:03.111Z,10.93
2022-10-29T08:08:30.845Z,8.63
2022-10-29T08:11:01.913Z,11.45
2022-10-29T08:13:28.636Z,8.32
2022-10-29T08:15:55.142Z,12.45
2022-10-29T08:18:21.545Z,8.75
2022-10-29T08:20:47.968Z,10.43
2022-10-29T08:23:14.666Z,12.88
2022-10-29T08:25:42.713Z,11.82
2022-10-29T08:28:11.876Z,10.32
2022-10-29T08:30:38.836Z,10.65
2022-10-29T08:33:05.679Z,9.35
2022-10-29T08:35:32.782Z,15.60
2022-10-29T08:37:59.418Z,10.80
2022-10-29T08:40:39.621Z,7.95
2022-10-29T08:43:24.808Z,8.50
2022-10-29T08:45:55.427Z,6.97
2022-10-29T08:48:33.931Z,8.98
2022-10-29T08:51:05.820Z,10.50
2022-10-29T08:53:39.700Z,8.68
2022-10-29T08:56:07.489Z,8.68
2022-10-29T08:58:58.325Z,9.30
2022-10-29T09:01:25.042Z,10.15
2022-10-29T09:03:51.754Z,11.52
2022-10-29T09:06:32.686Z,10.65
2022-10-29T09:09:36.654Z,7.22
2022-10-29T09:12:28.644Z,8.38
2022-10-29T09:15:24.078Z,8.23
2022-10-29T09:18:16.241Z,9.80
2022-10-29T09:20:51.323Z,11.98
2022-10-29T09:23:43.657Z,12.65
2022-10-29T09:26:16.265Z,9.48
2022-10-29T09:29:17.502Z,8.52
2022-10-29T09:31:49.875Z,8.45
2022-10-29T09:34:40.430Z,7.45
2022-10-29T09:37:21.477Z,9.68
2022-10-29T09:39:47.999Z,11.30
2022-10-29T09:42:34.061Z,11.50
2022-10-29T09:45:02.731Z,13.85
2022-10-29T09:47:43.515Z,10.35
2022-10-29T09:50:35.750Z,9.27
2022-10-29T09:53:02.343Z,9.98
2022-10-29T09:55:41.930Z,13.07
2022-10-29T09:58:18.656Z,12.27
2022-10-29T10:00:45.147Z,11.73
2022-10-29T10:03:25.358Z,11.05
2022-10-29T10:05:57.748Z,10.27
2022-10-29T10:08:24.198Z,14.25
2022-10-29T10:10:56.075Z,10.13
2022-10-29T10:13:27.393Z,10.23
2022-10-29T10:15:56.873Z,9.30
2022-10-29T10:18:26.375Z,11.07
2022-10-29T10:21:23.973Z,11.07
2022-10-29T10:23:54.473Z,11.48
2022-10-29T10:26:42.931Z,9.45
2022-10-29T10:29:22.991Z,8.48
2022-10-29T10:31:51.010Z,10.93
2022-10-29T10:34:20.196Z,8.48
2022-10-29T10:36:51.106Z,8.57
2022-10-29T10:39:38.912Z,14.98
2022-10-29T10:42:16.736Z,9.43
2022-10-29T10:44:52.238Z,9.25
2022-10-29T10:47:24.943Z,11.52
2022-10-29T10:49:51.362Z,12.40
2022-10-29T10:52:29.241Z,8.88
2022-10-29T10:54:58.825Z,11.88
2022-10-29T10:57:33.103Z,12.73
2022-10-29T11:00:09.443Z,10.82
2022-10-29T11:02:50.799Z,14.57
2022-10-29T11:05:17.156Z,9.68
2022-10-29T11:08:04.111Z,13.57
2022-10-29T11:10:44.096Z,7.72
2022-10-29T11:13:15.111Z,10.55
2022-10-29T11:16:04.098Z,9.68
2022-10-29T11:18:40.800Z,9.75
2022-10-29T11:21:33.215Z,12.43
2022-10-29T11:24:05.227Z,10.57
2022-10-29T11:26:34.388Z,10.02
2022-10-29T11:29:08.948Z,11.32
2022-10-29T11:31:52.585Z,9.98
2022-10-29T11:34:34.656Z,8.70
2022-10-29T11:37:07.401Z,8.80
2022-10-29T11:39:46.268Z,8.73
2022-10-29T11:42:13.690Z,11.65
2022-10-29T11:44:40.977Z,9.00
2022-10-29T11:47:22.651Z,7.78
2022-10-29T11:50:07.260Z,9.35
2022-10-29T11:52:54.068Z,10.90
2022-10-29T11:55:30.753Z,11.70
2022-10-29T11:58:11.262Z,7.10
2022-10-29T12:01:05.764Z,13.23
2022-10-29T12:03:44.247Z,14.48
2022-10-29T12:06:33.139Z,10.27
2022-10-29T12:09:20.713Z,11.35
2022-10-29T12:11:55.708Z,8.38
2022-10-29T12:14:29.936Z,9.50
2022-10-29T12:16:56.311Z,10.88
2022-10-29T12:19:52.561Z,9.73
2022-10-29T12:22:44.641Z,7.72
2022-10-29T12:25:19.455Z,5.97
2022-10-29T12:28:11.637Z,10.80
2022-10-29T12:30:47.836Z,11.45
2022-10-29T12:33:24.805Z,9.38
2022-10-29T12:38:40.678Z,8.50
2022-10-29T12:41:17.673Z,11.48
2022-10-29T12:43:44.476Z,10.63
2022-10-29T12:46:22.374Z,13.23
2022-10-29T12:48:58.256Z,12.18
2022-10-29T12:51:36.845Z,9.95
2022-10-29T12:54:24.581Z,11.82
2022-10-29T12:56:51.011Z,8.20
2022-10-29T12:59:23.428Z,8.68
2022-10-29T13:05:05.936Z,12.02
2022-10-29T13:07:33.442Z,11.50
2022-10-29T13:10:25.118Z,11.55
2022-10-29T13:13:08.132Z,10.13
2022-10-29T13:15:43.577Z,9.85
2022-10-29T13:18:12.913Z,8.55
2022-10-29T13:20:41.576Z,9.80
2022-10-29T13:23:23.273Z,8.65
2022-10-29T13:25:59.804Z,14.00
2022-10-29T13:28:26.114Z,12.57
2022-10-29T13:31:13.656Z,12.07
2022-10-29T13:33:40.001Z,9.40
2022-10-29T13:36:31.831Z,11.50
2022-10-29T13:39:07.479Z,11.32
2022-10-29T13:41:43.369Z,9.02
2022-10-29T13:44:26.317Z,15.80
2022-10-29T13:47:04.331Z,11.77
2022-10-29T13:49:33.801Z,9.73
2022-10-29T13:52:01.046Z,9.48
2022-10-29T13:54:31.774Z,10.73
2022-10-29T13:57:00.346Z,10.38
2022-10-29T13:59:38.186Z,13.15
2022-10-29T14:02:22.121Z,13.27
2022-10-29T14:04:51.025Z,10.77
2022-10-29T14:07:22.066Z,8.73
2022-10-29T14:09:52.274Z,10.07
2022-10-29T14:12:22.084Z,10.43
2022-10-29T14:15:10.828Z,8.77
2022-10-29T14:17:37.343Z,6.85
2022-10-29T14:20:03.968Z,10.80
2022-10-29T14:22:36.436Z,9.70
2022-10-29T14:25:32.280Z,11.65
2022-10-29T14:28:11.008Z,10.85
2022-10-29T14:30:37.472Z,8.45
2022-10-29T14:33:17.721Z,10.15
2022-10-29T14:35:44.459Z,9.00
2022-10-29T14:38:12.169Z,6.72
2022-10-29T14:40:38.681Z,9.65
2022-10-29T14:43:05.443Z,9.40
2022-10-29T14:45:32.155Z,9.75
2022-10-29T14:48:03.169Z,12.63
2022-10-29T14:50:30.460Z,15.13
2022-10-29T14:53:03.297Z,7.70
2022-10-29T14:55:41.958Z,11.60
2022-10-29T14:58:11.268Z,7.10
2022-10-29T15:00:38.469Z,10.52
2022-10-29T15:03:06.803Z,12.60
2022-10-29T15:05:36.067Z,11.40
2022-10-29T15:08:18.919Z,12.38
2022-10-29T15:10:50.801Z,10.63
2022-10-29T15:13:31.236Z,8.77
2022-10-29T15:16:08.640Z,9.70
2022-10-29T15:18:35.729Z,7.38
2022-10-29T15:21:03.951Z,9.27
2022-10-29T15:23:36.821Z,7.55
2022-10-29T15:26:14.301Z,10.52
2022-10-29T15:28:42.315Z,12.45
2022-10-29T15:31:31.160Z,7.60
2022-10-29T15:34:10.427Z,8.23
2022-10-29T15:36:50.919Z,10.77
2022-10-29T15:39:26.551Z,9.35
2022-10-29T15:41:55.490Z,7.95
2022-10-29T15:44:29.417Z,9.45
2022-10-29T15:47:00.794Z,9.93
2022-10-29T15:49:31.454Z,10.73
2022-10-29T15:52:00.289Z,11.35
2022-10-29T15:54:27.584Z,12.48
2022-10-29T15:56:53.977Z,12.07
2022-10-29T15:59:24.406Z,8.65
2022-10-29T16:01:50.943Z,11.05
2022-10-29T16:04:17.483Z,12.02
2022-10-29T16:06:43.965Z,12.57
2022-10-29T16:09:17.225Z,10.15
2022-10-29T16:11:43.651Z,9.63
2022-10-29T16:14:10.144Z,8.90
2022-10-29T16:16:36.783Z,9.98
2022-10-29T16:19:03.261Z,10.50
2022-10-29T16:21:29.682Z,14.43
2022-10-29T16:23:56.091Z,10.90
2022-10-29T16:26:24.087Z,14.23
2022-10-29T16:28:52.602Z,12.82
2022-10-29T16:31:24.768Z,10.25
2022-10-29T16:33:53.124Z,12.23
2022-10-29T16:36:19.590Z,8.13
2022-10-29T16:38:46.015Z,11.40
2022-10-29T16:41:17.131Z,8.80
2022-10-29T16:43:44.185Z,10.88
2022-10-29T16:46:12.079Z,10.20
2022-10-29T16:48:38.735Z,8.50
2022-10-29T16:51:05.657Z,12.10
2022-10-29T16:53:32.065Z,10.48
2022-10-29T16:55:58.497Z,6.15
2022-10-29T16:58:24.946Z,9.70
2022-10-29T17:00:51.417Z,12.73
2022-10-29T17:03:18.099Z,10.38
2022-10-29T17:05:45.846Z,10.50
2022-10-29T17:08:12.747Z,11.52
2022-10-29T17:10:39.411Z,10.98
2022-10-29T17:13:11.162Z,10.98
2022-10-29T17:15:41.045Z,14.75
2022-10-29T17:18:07.594Z,8.65
2022-10-29T17:20:34.012Z,11.32
2022-10-29T17:23:00.440Z,9.13
2022-10-29T17:25:26.859Z,8.45
2022-10-29T17:27:53.316Z,7.93
2022-10-29T17:30:19.747Z,11.57
2022-10-29T17:32:46.190Z,9.30
2022-10-29T17:35:12.620Z,8.85
2022-10-29T17:37:39.055Z,8.15
2022-10-29T17:40:08.098Z,10.50
2022-10-29T17:42:35.119Z,14.02
2022-10-29T17:45:01.582Z,10.93
2022-10-29T17:47:28.112Z,13.55
2022-10-29T17:49:54.629Z,13.98
2022-10-29T17:52:22.231Z,13.05
2022-10-29T17:54:48.714Z,12.82
2022-10-29T17:57:16.133Z,15.68
2022-10-29T17:59:42.528Z,15.45
2022-10-29T18:02:10.938Z,14.77
2022-10-29T18:04:37.539Z,18.80
2022-10-29T18:07:03.975Z,15.48
2022-10-29T18:09:30.393Z,15.65
2022-10-29T18:11:56.884Z,19.20
2022-10-29T18:14:23.310Z,17.00
2022-10-29T18:16:49.726Z,15.98
2022-10-29T18:19:17.217Z,16.90
2022-10-29T18:21:43.624Z,16.30
2022-10-29T18:24:10.171Z,14.80
2022-10-29T18:26:36.774Z,14.60
2022-10-29T18:29:10.123Z,13.93
2022-10-29T18:31:37.778Z,13.20
2022-10-29T18:34:06.203Z,13.23
2022-10-29T18:36:35.335Z,14.70
2022-10-29T18:39:01.765Z,14.50
2022-10-29T18:41:28.217Z,14.90
2022-10-29T18:43:55.300Z,22.05
2022-10-29T18:46:22.792Z,25.08
2022-10-29T18:48:49.996Z,32.70
2022-10-29T18:51:20.802Z,28.48
2022-10-29T18:53:47.250Z,27.52
2022-10-29T18:56:19.093Z,25.20
2022-10-29T18:58:45.926Z,26.15
2022-10-29T19:01:20.657Z,25.20
2022-10-29T19:03:52.337Z,20.67
2022-10-29T19:06:20.066Z,18.75
2022-10-29T19:08:47.058Z,17.70
2022-10-29T19:11:15.727Z,15.98
2022-10-29T19:13:42.416Z,17.08
2022-10-29T19:16:11.339Z,14.25
2022-10-29T19:18:38.739Z,14.65
2022-10-29T19:21:07.123Z,18.30
2022-10-29T19:23:34.284Z,16.23
2022-10-29T19:26:13.321Z,13.27
2022-10-29T19:28:40.320Z,13.27
2022-10-29T19:31:08.683Z,13.77
2022-10-29T19:33:35.705Z,13.10
2022-10-29T19:36:03.026Z,12.52
2022-10-29T19:38:29.545Z,10.27
2022-10-29T19:40:56.961Z,9.77
2022-10-29T19:43:24.429Z,9.02
2022-10-29T19:45:51.105Z,10.30
2022-10-29T19:48:18.932Z,10.25
2022-10-29T19:50:45.814Z,9.88
2022-10-29T19:53:12.752Z,12.23
2022-10-29T19:55:40.269Z,9.02
2022-10-29T19:58:06.963Z,10.88
2022-10-29T20:00:33.392Z,10.20
2022-10-29T20:03:00.269Z,11.63
2022-10-29T20:05:27.039Z,10.55
2022-10-29T20:07:53.476Z,11.88
2022-10-29T20:10:19.876Z,17.80
2022-10-29T20:12:46.328Z,12.18
2022-10-29T20:15:12.870Z,11.65
2022-10-29T20:17:39.292Z,9.98
2022-10-29T20:20:06.478Z,13.88
2022-10-29T20:22:32.962Z,12.25
2022-10-29T20:24:59.367Z,11.82
2022-10-29T20:27:25.824Z,13.95
2022-10-29T20:29:52.247Z,11.73
2022-10-29T20:32:18.854Z,13.00
2022-10-29T20:34:45.256Z,11.77
2022-10-29T20:37:11.749Z,10.52
2022-10-29T20:39:38.166Z,10.13
2022-10-29T20:42:04.629Z,11.02
2022-10-29T20:44:31.096Z,9.82
2022-10-29T20:46:57.557Z,12.45
2022-10-29T20:49:24.018Z,11.20
2022-10-29T20:51:50.453Z,11.75
2022-10-29T20:54:16.879Z,13.48
2022-10-29T20:56:43.301Z,12.05
2022-10-29T20:59:09.820Z,13.75
2022-10-29T21:01:36.400Z,11.60
2022-10-29T21:04:02.943Z,14.52
2022-10-29T21:06:29.893Z,12.38
2022-10-29T21:08:56.413Z,12.57
2022-10-29T21:11:23.594Z,9.80
2022-10-29T21:13:50.587Z,14.25
2022-10-29T21:16:27.278Z,13.27
2022-10-29T21:18:55.923Z,11.45
2022-10-29T21:21:22.934Z,9.88
2022-10-29T21:23:49.493Z,12.73
2022-10-29T21:26:18.530Z,10.40
2022-10-29T21:28:45.336Z,9.27
2022-10-29T21:31:11.805Z,12.73
2022-10-29T21:33:38.380Z,10.18
2022-10-29T21:36:05.273Z,9.70
2022-10-29T21:38:33.234Z,13.77
2022-10-29T21:41:03.021Z,10.95
2022-10-29T21:43:29.694Z,16.85
2022-10-29T21:45:57.120Z,13.77
2022-10-29T21:48:27.757Z,10.68
2022-10-29T21:51:07.837Z,14.07
2022-10-29T21:53:34.584Z,16.70
2022-10-29T21:56:02.802Z,13.38
2022-10-29T21:58:29.708Z,19.25
2022-10-29T22:01:03.506Z,22.77
2022-10-29T22:03:31.581Z,23.45
2022-10-29T22:06:11.508Z,18.05
2022-10-29T22:08:38.285Z,14.05
2022-10-29T22:11:05.209Z,12.95
2022-10-29T22:13:32.641Z,14.30
2022-10-29T22:15:59.493Z,12.93
2022-10-29T22:18:26.332Z,14.45
2022-10-29T22:21:13.605Z,13.20
2022-10-29T22:23:44.488Z,14.80
2022-10-29T22:26:11.638Z,12.10
2022-10-29T22:28:38.048Z,11.80
2022-10-29T22:31:05.224Z,10.90
2022-10-29T22:33:32.084Z,11.63
2022-10-29T22:36:19.909Z,16.33
2022-10-29T22:38:46.572Z,13.65
2022-10-29T22:41:17.518Z,13.90
2022-10-29T22:43:44.457Z,10.98
2022-10-29T22:46:12.677Z,10.13
2022-10-29T22:48:39.201Z,12.48
2022-10-29T22:51:06.530Z,12.93
2022-10-29T22:53:33.565Z,12.45
2022-10-29T22:56:00.632Z,12.07
2022-10-29T22:58:27.186Z,10.27
2022-10-29T23:01:02.719Z,12.02
2022-10-29T23:03:29.207Z,14.30
2022-10-29T23:05:57.331Z,14.18
2022-10-29T23:08:24.224Z,11.75
2022-10-29T23:10:50.623Z,11.77
2022-10-29T23:13:17.068Z,14.55
2022-10-29T23:15:48.003Z,12.07
2022-10-29T23:18:14.570Z,17.40
2022-10-29T23:20:41.154Z,11.95
2022-10-29T23:23:07.720Z,16.67
2022-10-29T23:25:34.180Z,14.10
2022-10-29T23:28:00.601Z,10.60
2022-10-29T23:30:27.037Z,11.70
2022-10-29T23:32:53.435Z,16.33
2022-10-29T23:35:19.849Z,14.15
2022-10-29T23:37:46.253Z,12.90
2022-10-29T23:40:12.768Z,11.90
2022-10-29T23:42:39.157Z,9.27
2022-10-29T23:45:07.707Z,11.95
2022-10-29T23:47:34.327Z,13.27
2022-10-29T23:50:00.744Z,12.65
2022-10-29T23:52:27.157Z,12.50
2022-10-29T23:54:53.546Z,11.35
2022-10-29T23:57:19.945Z,12.18
2022-10-29T23:59:46.350Z,10.88
